Flight Track Log - Related Links

Times and Time Zones

All times are in EDT time to prevent confusion due to time zone crossing. See the LOC5718 flight status page for this flight to view local times or setup timezone preferences in your user account.

Time Position Orientation Groundspeed Altitude Reporting Facility
EDT Latitude Longitude Course Direction KTS MPH feet Rate Location/Type
Fri 12:34:00 PM 33.7033 -85.3937 254° West  Level Estimated
Fri 12:35:00 PM 33.6914 -85.4423 254° West  Level Estimated
Fri 12:36:00 PM 33.6794 -85.4909 254° West  Level Estimated
Fri 12:37:00 PM 33.6674 -85.5395 253° West  Level Estimated
Fri 12:38:00 PM 33.6554 -85.5881 253° West  Level Estimated
Fri 12:39:00 PM 33.6433 -85.6366 253° West  Level Estimated
Fri 12:40:00 PM 33.6313 -85.6852 253° West  Level Estimated
Fri 12:41:00 PM 33.6192 -85.7337 253° West  Level Estimated
Fri 12:42:00 PM 33.6071 -85.7822 253° West  Level Estimated
Fri 12:43:00 PM 33.5950 -85.8307 253° West  Level Estimated
Fri 12:44:00 PM 33.5882 -85.8581 253° West  Level Estimated
Fri 12:45:00 PM 33.5882 -85.8581 196° South  Level Estimated
Fri 12:46:00 PM 33.5882 -85.8581 196° South  Level Estimated
Fri 12:47:00 PM 33.5882 -85.8581 196° South  Level Estimated
Fri 12:48:00 PM 33.5882 -85.8581 196° South  Level Estimated
Fri 12:49:00 PM 33.5882 -85.8581 196° South  Level Estimated
Fri 12:50:00 PM 33.5882 -85.8581 196° South  Level Estimated
Fri 12:51:00 PM 33.5882 -85.8581 196° South  Level Estimated
Fri 12:52:00 PM 33.5882 -85.8581 196° South  Level Estimated
Fri 12:53:00 PM 33.5882 -85.8581 196° South  Level Estimated
Fri 12:54:00 PM 33.5882 -85.8581 196° South  Level Estimated
Fri 12:55:00 PM 33.5882 -85.8581 196° South  Level Estimated
Fri 12:56:00 PM 33.5882 -85.8581 196° South  Level Estimated
Fri 12:57:00 PM 33.5882 -85.8581 196° South  Level Estimated
Fri 12:58:00 PM 33.5882 -85.8581 196° South  Level Estimated
Fri 12:59:00 PM 33.5882 -85.8581 196° South  Level Estimated

Login

Don't have an account? Register now (free) for customized features, flight alerts, and more!